Foxridge, Maryland
Current Conditions -  °F | °C
As of 9:54 PM on Monday 20 Oct 2014 (Local Time) from KBWI Reporting Station
Broken Clouds Broken Clouds  
Wind Chill: 57°   Ceiling: 8000
Heat Index: 57°   Visibility: 10mi
Dew Point: 43°   Wind: 3mph
Humidity: 59%   Direction: 180°S
Pressure: 29.96"   Gusts: NA
Location:  39.3744°N, 76.8156°W
Report Text: KBWI 210154Z 18003KT 10SM FEW055 BKN080 BKN200 14/06 A2996 RMK AO2 SLP143 T01390061
Loading
Personal Weather Stations






























Interactive Weather Map
Tropical Storm Tracking
New forecast layout! Learn more

10-Day Weather Forecast

Advertisements
Track Severe Weather on mobile